MADIS QC Values

Here are the MADIS QC values for some of the networks in the IEM. Red numbers indicate that the observed value is too high. Blue numbers indicate that the observed value is too low. The 'QC' value is an average of all of the QC routines MADIS runs. The 'Spatial' column is a result of the Spatial Consistency Check.

Site ID: Station Name: Ob Valid: (UTC) Air Temperature [F] Dewpoint [F] Altimeter [inch]
OB: QC: Spatial: OB: QC: Spatial: OB: QC: Spatial:
AWGWASHINGTON 19 21:35Z 57MM27MM30.15MM
CNCCHARITON 19 21:35Z 57MM30MM30.18MM
CSQCRESTON 19 21:35Z 54MM25MM30.2MM
OXVKnoxville 19 21:35Z 55MM25MM30.17MM
FSWFORT MADISON 19 21:35Z 55MM32MM30.17MM
EOKKEOKUK MUNI 19 21:35Z 55MM30MM30.18MM
ICLCLARINDA 19 21:35Z 57MM23MM30.24MM
AIOATLANTIC 19 21:35Z 54MM19MM30.21MM
OLZOELWEIN 19 21:35Z 48MM27MM30.11MM
SLBStorm Lake 19 21:35Z 48MM21MM30.19MM
IKVANKENY 19 21:35Z 55MM21MM30.18MM
SDASHENANDOAH MUNI 19 21:35Z 57MM23MM30.22MM
RDKRED OAK 19 21:35Z 55MM23MM30.23MM
DEHDECORAH 19 21:35Z 43MM21MM30.09MM
IIBINDEPENDENCE 19 21:35Z 49MM27MM30.14MM
FXYForest City 19 21:35Z 43MM23MM30.15MM
I75Osceola 19 21:35Z 56MM25MM30.19MM
LRJLE MARS 19 21:35Z MMMMMM30.21MM
CCYCHARLES CITY 19 21:35Z 45MM25MM30.13MM
AXAALGONA 19 21:35Z 46MM23MM30.15MM
CINCARROLL 19 21:35Z 52MM25MM30.19MM
CWICLINTON 19 20:56Z 54MM32MM30.12MM
ADUAUDUBON 19 21:35Z 54MM18MM30.21MM
MUTMUSCATINE 19 21:35Z 57MM28MM30.16MM
IFAIowa Falls 19 21:35Z 51MM21MM30.16MM
MXOMONTICELLO MUNI 19 21:35Z 55MM27MM30.08MM
GGIGrinnell 19 21:35Z 57MM31MM30.17MM
EBSWebster City 19 21:35Z 50MM21MM30.14MM
CAVCLARION 19 21:35Z 48MM25MM30.16MM
BNWBOONE MUNI 19 21:35Z 52MM25MM30.16MM
DNSDENISON 19 21:35Z 50MM27MM30.23MM
FFLFAIRFIELD 19 21:35Z 55MM25MM30.17MM
TNUNEWTON MUNI 19 21:35Z 55MM27MM30.16MM
ALOWaterloo 19 20:54Z 54MM27MM30.13MM
CIDCEDAR RAPIDS 19 20:52Z 55MM28MM30.12MM
FODFORT DODGE 19 20:56Z 50MM22MM30.18MM
DVNQUAD CITIES 19 20:52Z 55MM33MM30.15MM
SUXSIOUX CITY 19 20:52Z 50MM27MM30.23MM
ESTESTHERVILLE 19 20:52Z 44MM27MM30.17MM
AMWAmes 19 20:53Z 54MM26MM30.17MM
TVKCenterville 03 14:35Z 36MM32MM29.64MM
CKPCherokee 26 18:55Z 27MM21MM29.7MM
HNRHARLAN 19 21:35Z 55MM23MM30.22MM
MPZMOUNT PLEASANT 19 21:35Z 55MM30MM30.17MM
PEAPELLA 19 21:35Z 56MM26MM30.18MM
VTIVINTON 19 21:35Z 53MM25MM30.13MM
OOAOskaloosa 19 21:35Z 58MM29MM30.18MM
PROPerry 19 21:35Z 55MM25MM30.19MM
BRLBURLINGTON 19 20:53Z 56MM31MM30.17MM
MIWMARSHALLTOWN 19 20:53Z 54MM27MM30.14MM
IOWIOWA CITY 19 20:52Z 56MM29MM30.16MM
OTMOTTUMWA 19 20:53Z 57MM33MM30.17MM
DBQDUBUQUE 19 20:53Z 50MM26MM30.09MM
MCWMASON CITY 19 7:53Z 32MM26MM30.16MM
LWDLAMONI 19 20:53Z 57MM30MM30.21MM
SPWSPENCER 19 20:53Z 47MM21MM30.18MM
DSMDes Moines 19 20:54Z 57MM24MM30.2MM
CBFCOUNCIL BLUFFS 19 21:35Z 54MM23MM30.21MM
SHLSHELDON 19 21:35Z 45MM19MM30.17MM
ORCOrange City 2019 Feb 28 22:15Z 12-0.31.110-2.1-2.330.210.010.01